Time;durP1;ratioP1;P1;durP2;ratioP2;P2;SDS_P1;SDS_P2;PMS_P1;PMS_P2;Temp;Humidity;BMP_temperature;BMP_pressure;BME280_temperature;BME280_humidity;BME280_pressure;Samples;Min_cycle;Max_cycle;Signal;HPM_P1;HPM_P2
2023/03/07 00:02:27;;;;;;;3.53;0.73;;;29.10;99.90;;;;;;5062144;28;20197;-78
2023/03/07 00:04:58;;;;;;;2.50;0.95;;;29.20;99.90;;;;;;5075426;28;20298;-76
2023/03/07 00:07:35;;;;;;;3.40;1.40;;;29.30;99.90;;;;;;5059612;28;20193;-78
2023/03/07 00:10:07;;;;;;;5.13;1.20;;;29.30;99.90;;;;;;5071865;28;20201;-78
2023/03/07 00:12:39;;;;;;;3.20;1.30;;;29.30;99.90;;;;;;5073280;28;20199;-78
2023/03/07 00:15:11;;;;;;;4.10;0.90;;;29.30;99.90;;;;;;5067922;28;20356;-75
2023/03/07 00:17:43;;;;;;;8.38;2.95;;;29.40;99.90;;;;;;5062811;28;20197;-80
2023/03/07 00:20:15;;;;;;;6.93;1.38;;;29.30;99.90;;;;;;5069584;28;20197;-77
2023/03/07 00:22:48;;;;;;;4.82;1.00;;;29.30;99.90;;;;;;5078780;28;20261;-79
2023/03/07 00:25:19;;;;;;;3.72;1.10;;;29.40;99.90;;;;;;5093273;28;20556;-78
2023/03/07 00:27:50;;;;;;;5.47;1.08;;;29.50;99.90;;;;;;5084128;28;20196;-78
2023/03/07 00:30:21;;;;;;;4.45;1.10;;;29.70;99.90;;;;;;5077416;28;20231;-79
2023/03/07 00:32:52;;;;;;;5.43;1.20;;;29.80;99.90;;;;;;5074208;28;20193;-79
2023/03/07 00:35:24;;;;;;;4.25;0.82;;;29.90;99.90;;;;;;5069783;28;20219;-78
2023/03/07 00:37:56;;;;;;;2.17;0.70;;;30.00;99.90;;;;;;5074977;28;20200;-76
2023/03/07 00:40:28;;;;;;;5.97;3.65;;;30.00;99.90;;;;;;5083546;28;20198;-79
2023/03/07 00:42:59;;;;;;;4.53;2.60;;;29.90;99.90;;;;;;5074044;28;20205;-78
2023/03/07 00:45:30;;;;;;;6.13;1.50;;;29.90;99.90;;;;;;5082620;28;20196;-78
2023/03/07 00:48:01;;;;;;;4.72;1.30;;;29.90;99.90;;;;;;5086206;28;20196;-77
2023/03/07 00:50:32;;;;;;;3.30;1.48;;;29.80;99.90;;;;;;5088199;28;20197;-78
2023/03/07 00:53:05;;;;;;;2.10;1.00;;;29.80;99.90;;;;;;5061199;28;20193;-79
2023/03/07 00:55:36;;;;;;;2.00;0.77;;;29.80;99.90;;;;;;5066078;28;20224;-77
2023/03/07 00:58:09;;;;;;;3.67;0.90;;;29.80;99.90;;;;;;5073345;28;20207;-79
2023/03/07 01:00:40;;;;;;;4.43;0.98;;;29.90;99.90;;;;;;5073081;28;20266;-80
2023/03/07 01:03:11;;;;;;;3.65;1.45;;;29.90;99.90;;;;;;5074634;28;20627;-76
2023/03/07 01:05:44;;;;;;;3.75;0.80;;;30.00;99.90;;;;;;5072570;28;20189;-77
2023/03/07 01:08:19;;;;;;;2.80;0.95;;;30.30;99.90;;;;;;5075918;28;20197;-77
2023/03/07 01:10:50;;;;;;;5.00;0.90;;;30.50;99.90;;;;;;5078814;28;20189;-77
2023/03/07 01:13:22;;;;;;;3.63;0.60;;;30.80;99.90;;;;;;5079850;28;20193;-77
2023/03/07 01:15:53;;;;;;;2.92;0.65;;;31.20;99.90;;;;;;5076753;28;20217;-78
2023/03/07 01:18:24;;;;;;;4.38;1.10;;;31.40;99.90;;;;;;5086139;28;20197;-76
2023/03/07 01:20:56;;;;;;;6.97;1.05;;;31.50;99.90;;;;;;5056657;28;20198;-76
2023/03/07 01:23:29;;;;;;;4.00;1.20;;;31.70;99.90;;;;;;5072665;28;20196;-77
2023/03/07 01:26:00;;;;;;;3.47;0.70;;;31.80;99.90;;;;;;5083400;28;20248;-78
2023/03/07 01:28:31;;;;;;;4.05;0.88;;;31.90;99.90;;;;;;5076177;28;20262;-78
2023/03/07 01:31:02;;;;;;;4.32;0.90;;;32.00;99.90;;;;;;5080433;28;20205;-77
2023/03/07 01:33:34;;;;;;;1.88;0.77;;;32.10;99.90;;;;;;5085438;28;20192;-77
2023/03/07 01:36:05;;;;;;;2.70;0.80;;;32.10;99.90;;;;;;5073971;28;20699;-79
2023/03/07 01:38:38;;;;;;;4.60;1.33;;;32.30;99.90;;;;;;5065448;28;20197;-78
2023/03/07 01:41:09;;;;;;;3.28;1.00;;;32.30;99.90;;;;;;5073057;28;20195;-77
2023/03/07 01:43:40;;;;;;;2.47;0.80;;;32.50;99.90;;;;;;5078300;28;20193;-77
2023/03/07 01:46:32;;;;;;;3.53;1.15;;;32.60;99.90;;;;;;5081266;28;20200;-78
2023/03/07 01:49:08;;;;;;;5.28;0.80;;;32.70;99.90;;;;;;5081259;28;20196;-77
2023/03/07 01:51:43;;;;;;;1.63;0.80;;;32.70;99.90;;;;;;5088434;28;20651;-78
2023/03/07 01:54:20;;;;;;;3.30;0.88;;;32.90;99.90;;;;;;5071237;28;20220;-77
2023/03/07 01:56:52;;;;;;;2.70;0.73;;;33.00;99.90;;;;;;5076118;28;20566;-77
2023/03/07 01:59:27;;;;;;;3.95;1.00;;;32.90;99.90;;;;;;5088284;28;20192;-76
2023/03/07 02:02:01;;;;;;;4.78;1.20;;;32.90;99.90;;;;;;5068377;28;20193;-77
2023/03/07 02:04:38;;;;;;;4.03;0.80;;;33.00;99.90;;;;;;5071950;28;20217;-76
2023/03/07 02:07:10;;;;;;;4.25;1.17;;;33.10;99.90;;;;;;5085613;28;20196;-77
2023/03/07 02:09:46;;;;;;;2.67;1.00;;;33.20;99.90;;;;;;5079342;28;20250;-77
2023/03/07 02:12:18;;;;;;;1.77;0.73;;;33.20;99.90;;;;;;5073305;28;20202;-77
2023/03/07 02:14:50;;;;;;;2.78;0.88;;;33.30;99.90;;;;;;5074136;28;20221;-77
2023/03/07 02:17:23;;;;;;;3.50;0.80;;;33.30;99.90;;;;;;5074295;28;20197;-78
2023/03/07 02:20:10;;;;;;;3.55;0.80;;;33.40;99.90;;;;;;5090014;28;20688;-77
2023/03/07 02:22:41;;;;;;;2.83;0.77;;;33.50;99.90;;;;;;5086358;28;20192;-75
2023/03/07 02:25:19;;;;;;;2.15;0.85;;;33.60;99.90;;;;;;5067790;28;20200;-76
2023/03/07 02:27:55;;;;;;;2.88;0.63;;;33.70;99.90;;;;;;5074019;28;20192;-80
2023/03/07 02:30:26;;;;;;;2.20;0.63;;;33.70;99.90;;;;;;5074880;28;20238;-76
2023/03/07 02:32:57;;;;;;;2.15;0.60;;;33.80;99.90;;;;;;5065371;28;20201;-74
2023/03/07 02:35:29;;;;;;;2.40;0.60;;;33.90;99.90;;;;;;5071201;28;20221;-79
2023/03/07 02:38:04;;;;;;;1.02;0.70;;;34.00;99.90;;;;;;5055049;28;20197;-76
2023/03/07 02:40:36;;;;;;;2.65;0.80;;;34.00;99.90;;;;;;5064867;28;20195;-83
2023/03/07 02:43:10;;;;;;;3.05;0.52;;;34.10;99.90;;;;;;5094983;28;20643;-77
2023/03/07 02:45:41;;;;;;;1.88;0.73;;;34.00;99.90;;;;;;5091363;28;20237;-76
2023/03/07 02:48:12;;;;;;;1.45;0.50;;;34.10;99.90;;;;;;5072303;28;20203;-75
2023/03/07 02:50:43;;;;;;;2.40;0.50;;;34.00;99.90;;;;;;5074788;28;20191;-81
2023/03/07 02:53:14;;;;;;;3.13;0.68;;;34.10;99.90;;;;;;5065403;28;20208;-76
2023/03/07 02:55:45;;;;;;;1.08;0.60;;;34.20;99.90;;;;;;5086596;28;20581;-78
2023/03/07 02:58:19;;;;;;;1.88;0.52;;;34.30;99.90;;;;;;5070143;28;20211;-82
2023/03/07 03:00:50;;;;;;;4.40;0.70;;;34.30;99.90;;;;;;5079420;28;20197;-80
2023/03/07 03:03:21;;;;;;;3.13;0.60;;;34.30;99.90;;;;;;5073725;28;20228;-78
2023/03/07 03:05:52;;;;;;;1.80;0.70;;;34.30;99.90;;;;;;5074577;28;20646;-81
2023/03/07 03:08:24;;;;;;;1.80;0.50;;;34.20;99.70;;;;;;5080952;28;20204;-82
2023/03/07 03:10:56;;;;;;;1.88;0.65;;;34.10;99.70;;;;;;5090065;28;20211;-77
2023/03/07 03:13:29;;;;;;;2.67;0.40;;;34.20;99.90;;;;;;5073128;28;20211;-80
2023/03/07 03:16:01;;;;;;;1.83;0.55;;;34.20;99.90;;;;;;5072917;28;20209;-80
2023/03/07 03:18:32;;;;;;;5.18;0.60;;;34.30;99.80;;;;;;5063364;28;20197;-82
2023/03/07 03:21:08;;;;;;;1.67;0.57;;;34.40;99.10;;;;;;5074436;28;20191;-80
2023/03/07 03:23:40;;;;;;;1.15;0.40;;;34.40;99.10;;;;;;5084693;28;20194;-76
2023/03/07 03:26:12;;;;;;;1.35;0.45;;;34.30;98.50;;;;;;5083685;28;20200;-80
2023/03/07 03:28:45;;;;;;;3.88;0.70;;;34.30;98.00;;;;;;5070681;28;20205;-77
2023/03/07 03:31:16;;;;;;;1.38;0.50;;;34.40;97.80;;;;;;5065366;28;20188;-78
2023/03/07 03:33:48;;;;;;;3.17;0.60;;;34.40;98.20;;;;;;5075558;28;20196;-78
2023/03/07 03:36:20;;;;;;;0.88;0.43;;;34.40;98.90;;;;;;5073072;28;20265;-77
2023/03/07 03:38:51;;;;;;;1.50;0.45;;;34.40;99.40;;;;;;5086433;28;20201;-79
2023/03/07 03:41:23;;;;;;;0.93;0.30;;;34.40;99.90;;;;;;5094085;28;20213;-78
2023/03/07 03:43:57;;;;;;;1.92;0.50;;;34.40;98.80;;;;;;5091147;28;20195;-76
2023/03/07 03:46:28;;;;;;;5.88;0.70;;;34.40;98.90;;;;;;5080354;28;20196;-78
2023/03/07 03:49:00;;;;;;;1.85;0.60;;;34.40;98.30;;;;;;5079903;28;20199;-78
2023/03/07 03:51:31;;;;;;;1.75;0.50;;;34.50;97.90;;;;;;5093763;28;20551;-74
2023/03/07 03:54:02;;;;;;;4.75;0.40;;;34.60;97.70;;;;;;5089021;28;20204;-78
2023/03/07 03:56:33;;;;;;;4.40;1.02;;;34.70;98.30;;;;;;5053581;28;20587;-76
2023/03/07 03:59:08;;;;;;;2.22;0.60;;;34.70;97.20;;;;;;5060616;28;20199;-76
2023/03/07 04:01:39;;;;;;;6.97;1.00;;;34.70;98.20;;;;;;5083498;28;20199;-78
2023/03/07 04:04:11;;;;;;;6.00;1.10;;;34.70;99.90;;;;;;5072131;28;20303;-78
2023/03/07 04:06:43;;;;;;;4.20;1.10;;;33.80;99.90;;;;;;5070257;28;20192;-79
2023/03/07 04:09:14;;;;;;;4.55;0.95;;;33.10;99.90;;;;;;5085092;28;20193;-76
2023/03/07 04:11:45;;;;;;;4.80;0.95;;;32.50;99.90;;;;;;5076062;28;20196;-80
2023/03/07 04:14:18;;;;;;;7.35;1.23;;;31.90;99.90;;;;;;5084626;28;20208;-80
2023/03/07 04:16:50;;;;;;;5.00;1.08;;;31.60;99.90;;;;;;5084963;28;20582;-78
2023/03/07 04:19:21;;;;;;;6.10;1.27;;;31.20;99.90;;;;;;5075022;28;20207;-78
2023/03/07 04:21:52;;;;;;;3.60;0.80;;;31.20;99.90;;;;;;5073321;28;20555;-78
2023/03/07 04:24:23;;;;;;;5.13;1.00;;;30.90;99.90;;;;;;5065603;28;20197;-79
2023/03/07 04:26:54;;;;;;;5.72;1.00;;;30.90;99.90;;;;;;5073314;28;20192;-77
2023/03/07 04:29:29;;;;;;;5.15;1.15;;;31.00;99.90;;;;;;5072074;28;20224;-78
2023/03/07 04:32:00;;;;;;;9.15;1.20;;;30.90;99.90;;;;;;5076058;28;20224;-76
2023/03/07 04:34:31;;;;;;;5.40;1.10;;;30.60;99.90;;;;;;5075126;28;20199;-78
2023/03/07 04:37:02;;;;;;;4.28;1.00;;;30.60;99.90;;;;;;5071948;28;20224;-77
2023/03/07 04:39:33;;;;;;;4.60;1.02;;;30.70;99.90;;;;;;5073363;28;20200;-78
2023/03/07 04:42:06;;;;;;;2.72;0.82;;;30.70;99.90;;;;;;5071674;28;20201;-79
2023/03/07 04:44:39;;;;;;;4.50;1.05;;;30.70;99.90;;;;;;5071566;28;20250;-77
2023/03/07 04:47:10;;;;;;;6.72;0.90;;;30.60;99.90;;;;;;5076194;28;20203;-79
2023/03/07 04:49:41;;;;;;;5.72;1.20;;;30.60;99.90;;;;;;5090229;28;20220;-77
2023/03/07 04:52:14;;;;;;;4.00;0.80;;;30.30;99.90;;;;;;5094419;28;20192;-76
2023/03/07 04:54:46;;;;;;;2.92;1.05;;;30.30;99.90;;;;;;5097336;28;20691;-77
2023/03/07 04:57:17;;;;;;;3.60;0.88;;;30.10;99.90;;;;;;5097332;28;20196;-79
2023/03/07 04:59:50;;;;;;;3.30;1.00;;;30.00;99.90;;;;;;5081197;28;20193;-76
2023/03/07 05:02:21;;;;;;;3.30;1.10;;;30.10;99.90;;;;;;5076959;28;20189;-77
2023/03/07 05:04:53;;;;;;;4.53;0.98;;;29.90;99.90;;;;;;5072492;28;20220;-80
2023/03/07 05:07:24;;;;;;;8.77;1.10;;;29.90;99.90;;;;;;5079152;28;20195;-77
2023/03/07 05:09:55;;;;;;;4.68;1.20;;;29.90;99.90;;;;;;5097062;28;20195;-79
2023/03/07 05:12:26;;;;;;;5.88;1.02;;;29.90;99.90;;;;;;5096991;28;20188;-79
2023/03/07 05:14:59;;;;;;;5.72;0.93;;;29.90;99.90;;;;;;5090979;28;20203;-77
2023/03/07 05:17:31;;;;;;;5.40;1.00;;;29.90;99.90;;;;;;5071596;28;20534;-78
2023/03/07 05:20:03;;;;;;;4.05;0.90;;;29.70;99.90;;;;;;5073431;28;20193;-78
2023/03/07 05:22:34;;;;;;;5.47;1.00;;;29.70;99.90;;;;;;5076965;28;20223;-78
2023/03/07 05:25:06;;;;;;;4.32;0.88;;;29.50;99.90;;;;;;5096814;28;20188;-77
2023/03/07 05:27:37;;;;;;;5.65;1.10;;;29.50;99.90;;;;;;5083372;28;20196;-77
2023/03/07 05:30:11;;;;;;;4.10;0.93;;;29.40;99.90;;;;;;5063576;28;20227;-78
2023/03/07 05:32:42;;;;;;;4.57;1.00;;;29.40;99.90;;;;;;5075878;28;20192;-80
2023/03/07 05:35:14;;;;;;;5.65;1.00;;;29.20;99.90;;;;;;5074904;28;20559;-77
2023/03/07 05:37:45;;;;;;;5.05;1.10;;;29.10;99.90;;;;;;5074785;28;20193;-78
2023/03/07 05:40:17;;;;;;;3.53;0.90;;;29.00;99.90;;;;;;5076291;28;20193;-77
2023/03/07 05:42:48;;;;;;;4.93;1.35;;;29.00;99.90;;;;;;5076187;28;20189;-75
2023/03/07 05:45:21;;;;;;;4.57;1.10;;;29.00;99.90;;;;;;5076119;28;20197;-79
2023/03/07 05:47:52;;;;;;;4.28;1.00;;;29.00;99.90;;;;;;5090657;28;20279;-76
2023/03/07 05:50:24;;;;;;;8.30;2.05;;;29.10;99.90;;;;;;5096714;28;20192;-78
2023/03/07 05:52:55;;;;;;;4.15;1.10;;;28.90;99.90;;;;;;5094010;28;20188;-80
2023/03/07 05:55:27;;;;;;;4.93;0.90;;;28.70;99.90;;;;;;5087028;28;20235;-80
2023/03/07 05:57:58;;;;;;;4.10;0.90;;;28.60;99.90;;;;;;5064689;28;20196;-78
2023/03/07 06:00:31;;;;;;;7.70;1.00;;;28.60;99.90;;;;;;5093636;28;20199;-77
2023/03/07 06:03:05;;;;;;;3.83;1.20;;;28.50;99.90;;;;;;5092300;28;20212;-77
2023/03/07 06:05:36;;;;;;;3.92;0.90;;;28.30;99.90;;;;;;5096091;28;20195;-78
2023/03/07 06:08:07;;;;;;;5.63;1.05;;;28.20;99.90;;;;;;5076599;28;20254;-79
2023/03/07 06:10:38;;;;;;;2.83;0.77;;;28.20;99.90;;;;;;5075724;28;20193;-79
2023/03/07 06:13:14;;;;;;;2.50;0.77;;;28.10;99.90;;;;;;5086140;28;20802;-78
2023/03/07 06:15:49;;;;;;;2.63;0.88;;;28.10;99.90;;;;;;5081533;28;20207;-78
2023/03/07 06:18:21;;;;;;;3.55;0.85;;;28.20;99.90;;;;;;5077313;28;20210;-79
2023/03/07 06:20:58;;;;;;;4.47;1.10;;;28.20;99.90;;;;;;5070349;28;20192;-79
2023/03/07 06:23:30;;;;;;;4.80;1.08;;;28.20;99.90;;;;;;5074723;28;20181;-76
2023/03/07 06:26:02;;;;;;;3.42;0.90;;;28.30;99.90;;;;;;5074149;28;20663;-76
2023/03/07 06:28:33;;;;;;;3.75;1.13;;;28.30;99.90;;;;;;5075952;28;20201;-80
2023/03/07 06:31:12;;;;;;;3.22;1.33;;;28.20;99.90;;;;;;5081904;28;20200;-78
2023/03/07 06:33:44;;;;;;;5.57;1.05;;;28.30;99.90;;;;;;5055215;28;20189;-79
2023/03/07 06:36:17;;;;;;;5.00;1.30;;;28.30;99.90;;;;;;5092138;28;20224;-81
2023/03/07 06:38:49;;;;;;;5.50;1.10;;;28.40;99.90;;;;;;5093162;28;20200;-76
2023/03/07 06:41:20;;;;;;;5.97;1.15;;;28.30;99.90;;;;;;5095456;28;20185;-77
2023/03/07 06:43:54;;;;;;;5.50;1.10;;;28.40;99.90;;;;;;5092472;28;20205;-78
2023/03/07 06:46:27;;;;;;;6.47;1.10;;;28.40;99.90;;;;;;5095039;28;20210;-78
2023/03/07 06:48:58;;;;;;;5.57;1.27;;;28.30;99.90;;;;;;5093162;28;20192;-78
2023/03/07 06:51:29;;;;;;;5.90;1.13;;;28.20;99.90;;;;;;5089917;28;20200;-77
2023/03/07 06:54:01;;;;;;;5.22;1.10;;;28.10;99.90;;;;;;5093634;28;20210;-80
2023/03/07 06:56:34;;;;;;;4.10;1.10;;;28.00;99.90;;;;;;5091797;28;20709;-77
2023/03/07 06:59:06;;;;;;;3.03;0.95;;;28.00;99.90;;;;;;5069736;28;20663;-76
2023/03/07 07:01:39;;;;;;;5.15;1.20;;;28.00;99.90;;;;;;5074279;28;20243;-79
2023/03/07 07:04:11;;;;;;;7.13;1.15;;;27.90;99.90;;;;;;5084993;28;20228;-77
2023/03/07 07:06:42;;;;;;;6.05;1.08;;;27.90;99.90;;;;;;5091319;28;20659;-78
2023/03/07 07:09:15;;;;;;;7.00;1.27;;;27.80;99.90;;;;;;5064451;28;20208;-81
2023/03/07 07:11:46;;;;;;;6.72;1.33;;;27.70;99.90;;;;;;5066307;28;20284;-79
2023/03/07 07:14:17;;;;;;;7.55;1.40;;;27.70;99.90;;;;;;5072285;28;20208;-79
2023/03/07 07:16:50;;;;;;;7.72;1.38;;;27.70;99.90;;;;;;5079897;28;20211;-77
2023/03/07 07:19:21;;;;;;;5.03;1.23;;;27.70;99.90;;;;;;5078219;28;20193;-77
2023/03/07 07:21:52;;;;;;;11.35;1.50;;;27.70;99.90;;;;;;5068309;28;20201;-78
2023/03/07 07:24:24;;;;;;;7.32;1.45;;;27.60;99.90;;;;;;5073994;28;20193;-78
2023/03/07 07:26:55;;;;;;;6.75;1.83;;;27.60;99.90;;;;;;5066963;28;20200;-78
2023/03/07 07:29:26;;;;;;;7.80;1.88;;;27.50;99.90;;;;;;5082812;28;20223;-77
2023/03/07 07:32:02;;;;;;;6.47;1.60;;;27.50;99.90;;;;;;5072333;28;20196;-80
2023/03/07 07:34:35;;;;;;;7.45;2.13;;;27.50;99.90;;;;;;5068439;28;20543;-79
2023/03/07 07:37:07;;;;;;;7.43;2.03;;;27.50;99.90;;;;;;5075527;28;20451;-78
2023/03/07 07:39:40;;;;;;;8.77;2.70;;;27.40;99.90;;;;;;5074087;28;20261;-83
2023/03/07 07:42:11;;;;;;;11.60;2.00;;;27.40;99.90;;;;;;5075986;28;20379;-78
2023/03/07 07:44:42;;;;;;;8.35;1.60;;;27.40;99.90;;;;;;5070185;28;20193;-80
2023/03/07 07:47:15;;;;;;;10.00;1.92;;;27.30;99.90;;;;;;5076326;28;20196;-79
2023/03/07 07:49:46;;;;;;;10.32;1.80;;;27.30;99.90;;;;;;5071168;28;20204;-78
2023/03/07 07:52:17;;;;;;;8.90;1.67;;;27.20;99.90;;;;;;5071140;28;20208;-81
2023/03/07 07:54:48;;;;;;;11.35;1.80;;;27.20;99.90;;;;;;5071745;28;20203;-79
2023/03/07 07:57:20;;;;;;;8.95;2.08;;;27.10;99.90;;;;;;5077248;28;20568;-80
2023/03/07 07:59:51;;;;;;;10.75;2.17;;;27.10;99.90;;;;;;5071020;28;20195;-77
2023/03/07 08:02:24;;;;;;;9.20;1.80;;;27.10;99.90;;;;;;5069444;28;20221;-80
2023/03/07 08:04:55;;;;;;;8.50;2.03;;;27.00;99.90;;;;;;5082192;28;20202;-80
2023/03/07 08:07:26;;;;;;;10.10;1.98;;;27.10;99.90;;;;;;5073629;28;20199;-79
2023/03/07 08:09:57;;;;;;;10.15;2.10;;;27.00;99.90;;;;;;5078353;28;20203;-81
2023/03/07 08:12:28;;;;;;;10.95;2.00;;;27.00;99.90;;;;;;5079636;28;20205;-80
2023/03/07 08:14:59;;;;;;;10.07;2.10;;;26.90;99.90;;;;;;5084946;28;20651;-80
2023/03/07 08:17:33;;;;;;;8.25;2.13;;;26.90;99.90;;;;;;5059215;28;20213;-81
2023/03/07 08:20:08;;;;;;;9.70;2.00;;;26.80;99.90;;;;;;5070164;28;20196;-81
2023/03/07 08:22:39;;;;;;;11.93;2.35;;;26.70;99.90;;;;;;5082280;28;20195;-79
2023/03/07 08:25:16;;;;;;;10.18;2.45;;;26.70;99.90;;;;;;5072738;28;20199;-80
2023/03/07 08:27:47;;;;;;;9.73;2.35;;;26.60;99.90;;;;;;5079258;28;20200;-81
2023/03/07 08:30:19;;;;;;;6.55;2.28;;;26.60;99.90;;;;;;5080506;28;20327;-79
2023/03/07 08:32:56;;;;;;;17.20;2.17;;;26.50;99.90;;;;;;5073043;28;20275;-80
2023/03/07 08:35:29;;;;;;;14.20;2.13;;;26.40;99.90;;;;;;5077363;28;20609;-81
2023/03/07 08:38:00;;;;;;;12.35;2.30;;;26.40;99.90;;;;;;5084486;28;20216;-80
2023/03/07 08:40:32;;;;;;;19.77;2.58;;;26.40;99.90;;;;;;5070865;28;20197;-78
2023/03/07 08:43:03;;;;;;;12.15;2.17;;;26.40;99.90;;;;;;5081624;28;20201;-80
2023/03/07 08:45:34;;;;;;;12.57;2.45;;;26.30;99.90;;;;;;5066469;28;20205;-81
2023/03/07 08:48:08;;;;;;;12.60;2.45;;;26.20;99.90;;;;;;5071337;28;20197;-80
2023/03/07 08:50:40;;;;;;;16.75;2.40;;;26.20;99.90;;;;;;5072385;28;20193;-80
2023/03/07 08:53:11;;;;;;;14.35;2.28;;;26.20;99.90;;;;;;5078767;28;20683;-80
2023/03/07 08:55:43;;;;;;;11.60;2.22;;;26.10;99.90;;;;;;5080565;28;20204;-80
2023/03/07 08:58:14;;;;;;;14.02;2.65;;;26.10;99.90;;;;;;5075218;28;20212;-80
2023/03/07 09:00:45;;;;;;;12.60;2.17;;;26.10;99.90;;;;;;5072739;28;20203;-80
2023/03/07 09:03:18;;;;;;;13.48;2.33;;;26.10;99.90;;;;;;5079600;28;20588;-81
2023/03/07 09:05:49;;;;;;;17.95;2.55;;;26.10;99.90;;;;;;5074971;28;20197;-80
2023/03/07 09:08:20;;;;;;;16.13;2.88;;;26.00;99.90;;;;;;5083312;28;20204;-79
2023/03/07 09:10:51;;;;;;;11.73;2.53;;;26.00;99.90;;;;;;5081390;28;20200;-81
2023/03/07 09:13:22;;;;;;;12.82;2.28;;;25.90;99.90;;;;;;5080911;28;20193;-80
2023/03/07 09:15:54;;;;;;;13.90;2.70;;;25.90;99.90;;;;;;5082316;28;20590;-80
2023/03/07 09:18:27;;;;;;;13.90;2.63;;;25.90;99.90;;;;;;5078843;28;20220;-80
2023/03/07 09:21:00;;;;;;;15.52;2.78;;;25.90;99.90;;;;;;5059942;28;20684;-80
2023/03/07 09:23:31;;;;;;;10.20;2.38;;;25.80;99.90;;;;;;5072676;28;20207;-80
2023/03/07 09:26:03;;;;;;;15.90;2.40;;;25.80;99.90;;;;;;5073784;28;20652;-80
2023/03/07 09:28:35;;;;;;;13.80;2.60;;;25.70;99.90;;;;;;5073775;28;20197;-79
2023/03/07 09:31:11;;;;;;;21.50;3.58;;;25.70;99.90;;;;;;5079762;28;20200;-79
2023/03/07 09:33:44;;;;;;;7.60;2.30;;;25.70;99.90;;;;;;5077589;28;20200;-80
2023/03/07 09:36:16;;;;;;;14.52;2.75;;;25.70;99.90;;;;;;5081542;28;20197;-80
2023/03/07 09:38:48;;;;;;;11.18;2.90;;;25.70;99.90;;;;;;5075967;28;20196;-80
2023/03/07 09:41:40;;;;;;;13.15;2.40;;;25.70;99.90;;;;;;5075017;28;20204;-81
2023/03/07 09:44:19;;;;;;;11.27;2.28;;;25.70;99.90;;;;;;5082997;28;20228;-80
2023/03/07 09:47:09;;;;;;;8.00;2.38;;;25.70;99.90;;;;;;5062886;28;20211;-80
2023/03/07 09:49:47;;;;;;;10.45;2.75;;;25.70;99.90;;;;;;5073762;28;20202;-80
2023/03/07 09:52:21;;;;;;;13.23;2.28;;;25.70;99.90;;;;;;5090676;28;20700;-80
2023/03/07 09:54:58;;;;;;;8.50;2.33;;;25.70;99.90;;;;;;5075525;28;20203;-80
2023/03/07 09:57:33;;;;;;;9.73;2.17;;;25.70;99.90;;;;;;5081150;28;20227;-79
2023/03/07 10:00:09;;;;;;;17.33;2.72;;;25.60;99.90;;;;;;5082986;28;20195;-79
2023/03/07 10:02:45;;;;;;;14.93;3.10;;;25.60;99.90;;;;;;5083967;28;20243;-79
2023/03/07 10:05:30;;;;;;;12.18;2.20;;;25.50;99.90;;;;;;5073523;28;20658;-79
2023/03/07 10:08:04;;;;;;;9.98;2.42;;;25.50;99.90;;;;;;5061906;28;20193;-79
2023/03/07 10:10:40;;;;;;;11.20;2.55;;;25.40;99.90;;;;;;5074162;28;20197;-80
2023/03/07 10:13:30;;;;;;;10.38;2.35;;;25.40;99.90;;;;;;5075151;28;20185;-79
2023/03/07 10:16:06;;;;;;;14.32;2.40;;;25.40;99.90;;;;;;5067107;28;20194;-79
2023/03/07 10:18:58;;;;;;;11.48;2.45;;;25.40;99.90;;;;;;5077370;28;20547;-79
2023/03/07 10:21:39;;;;;;;11.38;2.60;;;25.30;99.90;;;;;;5071557;28;20196;-80
2023/03/07 10:24:54;;;;;;;12.40;2.70;;;25.30;99.90;;;;;;5075079;28;20185;-80
2023/03/07 10:27:29;;;;;;;11.27;2.30;;;25.20;99.90;;;;;;5013050;28;20195;-80
2023/03/07 10:30:03;;;;;;;9.57;2.20;;;25.20;99.90;;;;;;5009836;28;20234;-80
2023/03/07 10:32:39;;;;;;;12.65;2.70;;;25.20;99.90;;;;;;5056837;28;20204;-80
2023/03/07 10:35:20;;;;;;;13.75;2.63;;;25.20;99.90;;;;;;5073944;28;20200;-80
2023/03/07 10:37:57;;;;;;;15.43;2.88;;;25.10;99.90;;;;;;5071840;28;20217;-79
2023/03/07 10:40:32;;;;;;;9.65;2.67;;;25.10;99.90;;;;;;5074227;28;20201;-80
2023/03/07 10:43:04;;;;;;;9.75;2.85;;;25.10;99.90;;;;;;5074936;28;20578;-79
2023/03/07 10:45:36;;;;;;;14.48;2.65;;;25.00;99.90;;;;;;5074868;28;20552;-79
2023/03/07 10:48:11;;;;;;;9.70;2.35;;;25.00;99.90;;;;;;5074976;28;20185;-79
2023/03/07 10:50:46;;;;;;;12.05;2.92;;;25.00;99.90;;;;;;5074428;28;20199;-80
2023/03/07 10:53:26;;;;;;;12.13;2.58;;;25.00;99.90;;;;;;5074999;28;20189;-80
2023/03/07 10:56:18;;;;;;;11.93;2.42;;;24.90;99.90;;;;;;5075211;28;20193;-79
2023/03/07 10:59:03;;;;;;;10.73;2.83;;;24.90;99.90;;;;;;5074807;28;20221;-80
2023/03/07 11:01:35;;;;;;;10.07;2.60;;;24.90;99.90;;;;;;5074718;28;20315;-80
2023/03/07 11:04:07;;;;;;;9.98;2.60;;;24.80;99.90;;;;;;5074360;28;20632;-80
2023/03/07 11:06:43;;;;;;;11.48;2.60;;;24.80;99.90;;;;;;5074341;28;20655;-80
2023/03/07 11:09:29;;;;;;;12.73;2.80;;;24.80;99.90;;;;;;5074593;28;20200;-80
2023/03/07 11:12:02;;;;;;;9.82;2.20;;;24.80;99.90;;;;;;5086530;28;20200;-80
2023/03/07 11:14:47;;;;;;;9.07;2.63;;;24.70;99.90;;;;;;5088252;28;20193;-80
2023/03/07 11:17:23;;;;;;;10.55;2.58;;;24.70;99.90;;;;;;5070683;28;20225;-80
2023/03/07 11:19:57;;;;;;;10.82;2.63;;;24.70;99.90;;;;;;5072245;28;20206;-80
2023/03/07 11:22:32;;;;;;;14.48;3.00;;;24.70;99.90;;;;;;5089304;28;20203;-80
2023/03/07 11:25:16;;;;;;;9.90;2.22;;;24.60;99.90;;;;;;5060631;28;20196;-80
2023/03/07 11:27:53;;;;;;;9.52;2.35;;;24.50;99.90;;;;;;5079231;28;20197;-80
2023/03/07 11:30:27;;;;;;;9.88;2.83;;;24.50;99.90;;;;;;5073254;28;20228;-80
2023/03/07 11:33:08;;;;;;;13.55;2.67;;;24.50;99.90;;;;;;5073870;28;20200;-80
2023/03/07 11:36:03;;;;;;;12.43;2.60;;;24.50;99.90;;;;;;5074179;28;20189;-80
2023/03/07 11:38:52;;;;;;;9.10;2.50;;;24.40;99.90;;;;;;5074043;28;20222;-80
2023/03/07 11:41:30;;;;;;;9.93;2.65;;;24.40;99.90;;;;;;5073318;28;20214;-80
2023/03/07 11:44:16;;;;;;;9.20;2.50;;;24.40;99.90;;;;;;5073571;28;20582;-80
2023/03/07 11:47:05;;;;;;;9.23;2.67;;;24.40;99.90;;;;;;5073984;28;20200;-80
2023/03/07 11:49:49;;;;;;;9.80;2.70;;;24.40;99.90;;;;;;5074103;28;20185;-80
2023/03/07 11:52:40;;;;;;;9.25;2.42;;;24.30;99.90;;;;;;5073749;28;20663;-80
2023/03/07 11:55:26;;;;;;;14.40;2.67;;;24.30;99.90;;;;;;5073491;28;20546;-80
2023/03/07 11:58:21;;;;;;;12.55;2.55;;;24.30;99.90;;;;;;5073646;28;20212;-80
2023/03/07 12:01:05;;;;;;;8.65;2.83;;;24.30;99.90;;;;;;5073689;28;20189;-80
2023/03/07 12:04:02;;;;;;;7.53;2.35;;;24.20;99.90;;;;;;5073614;28;20224;-80
2023/03/07 12:06:41;;;;;;;10.77;2.63;;;24.20;99.90;;;;;;5077885;28;20196;-80
2023/03/07 12:09:33;;;;;;;10.95;2.90;;;24.20;99.90;;;;;;5064160;28;20196;-80
2023/03/07 12:12:42;;;;;;;13.90;2.92;;;24.20;99.90;;;;;;5080250;28;20679;-80
2023/03/07 12:15:36;;;;;;;13.70;3.03;;;24.10;99.90;;;;;;5010550;28;20202;-80
2023/03/07 12:18:31;;;;;;;10.20;2.88;;;24.10;99.90;;;;;;5083122;28;20254;-80
2023/03/07 12:21:17;;;;;;;9.43;2.67;;;24.00;99.90;;;;;;5070110;28;20196;-80
2023/03/07 12:23:53;;;;;;;7.63;2.50;;;24.00;99.90;;;;;;5086251;28;20200;-80
2023/03/07 12:26:28;;;;;;;10.70;3.30;;;24.00;99.90;;;;;;5064131;28;20200;-80
2023/03/07 12:29:04;;;;;;;13.15;2.83;;;23.90;99.90;;;;;;5072040;28;20642;-80
2023/03/07 12:31:41;;;;;;;13.10;2.85;;;23.90;99.90;;;;;;5086059;28;20675;-80
2023/03/07 12:34:20;;;;;;;9.88;2.75;;;23.80;99.90;;;;;;5078385;28;20204;-80
2023/03/07 12:36:55;;;;;;;15.15;3.13;;;23.80;99.90;;;;;;5086468;28;20233;-80
2023/03/07 12:39:29;;;;;;;12.45;3.08;;;23.70;99.90;;;;;;5088560;28;20223;-80
2023/03/07 12:42:06;;;;;;;10.50;2.80;;;23.70;99.90;;;;;;5068486;28;20188;-80
2023/03/07 12:44:43;;;;;;;11.95;3.13;;;23.60;99.90;;;;;;5063146;28;20192;-80
2023/03/07 12:47:27;;;;;;;10.68;2.83;;;23.60;99.90;;;;;;5073602;28;20201;-80
2023/03/07 12:50:07;;;;;;;13.65;3.20;;;23.60;99.90;;;;;;5065621;28;20201;-80
2023/03/07 12:52:45;;;;;;;11.43;2.95;;;23.60;99.90;;;;;;5081663;28;20208;-80
2023/03/07 12:55:25;;;;;;;10.35;2.85;;;23.60;99.90;;;;;;5079254;28;20199;-80
2023/03/07 12:58:12;;;;;;;12.73;3.20;;;23.50;99.90;;;;;;5070252;28;20216;-80
2023/03/07 13:00:48;;;;;;;10.25;2.90;;;23.50;99.90;;;;;;5091037;28;20230;-80
2023/03/07 13:03:31;;;;;;;13.27;3.03;;;23.50;99.90;;;;;;5070286;28;20220;-80
2023/03/07 13:06:02;;;;;;;10.60;2.75;;;23.40;99.90;;;;;;5072292;28;20211;-80
2023/03/07 13:08:34;;;;;;;9.73;2.75;;;23.30;99.90;;;;;;5076148;28;20287;-80
2023/03/07 13:11:06;;;;;;;10.68;2.75;;;23.30;99.90;;;;;;5084568;28;20200;-80
2023/03/07 13:14:00;;;;;;;12.45;3.65;;;23.30;99.90;;;;;;5085536;28;20193;-80
2023/03/07 13:16:42;;;;;;;11.98;3.55;;;23.20;99.90;;;;;;5080238;28;20201;-80
2023/03/07 13:20:04;;;;;;;14.25;3.10;;;23.20;99.90;;;;;;5085965;28;20219;-80
2023/03/07 13:23:02;;;;;;;12.85;2.83;;;23.10;99.90;;;;;;5094113;28;20196;-80